sensor_id;sensor_type;location;lat;lon;timestamp;P1;durP1;ratioP1;P2;durP2;ratioP2
46675;SDS011;32412;51.478;5.694;2022-07-06T18:18:09;5.40;;;2.70;;
46675;SDS011;32412;51.478;5.694;2022-07-06T18:20:34;8.70;;;2.53;;
46675;SDS011;32412;51.478;5.694;2022-07-06T18:23:00;8.30;;;2.63;;
46675;SDS011;32412;51.478;5.694;2022-07-06T18:25:26;6.78;;;2.53;;
46675;SDS011;32412;51.478;5.694;2022-07-06T18:27:52;12.38;;;3.47;;
46675;SDS011;32412;51.478;5.694;2022-07-06T18:30:18;5.43;;;2.53;;
46675;SDS011;32412;51.478;5.694;2022-07-06T18:32:45;8.10;;;2.70;;
46675;SDS011;32412;51.478;5.694;2022-07-06T18:35:14;5.03;;;2.20;;
46675;SDS011;32412;51.478;5.694;2022-07-06T18:37:40;9.55;;;2.90;;
46675;SDS011;32412;51.478;5.694;2022-07-06T18:40:07;3.78;;;2.35;;
46675;SDS011;32412;51.478;5.694;2022-07-06T18:42:33;5.00;;;2.53;;
46675;SDS011;32412;51.478;5.694;2022-07-06T18:44:58;8.10;;;2.90;;
46675;SDS011;32412;51.478;5.694;2022-07-06T18:47:24;5.70;;;2.60;;
46675;SDS011;32412;51.478;5.694;2022-07-06T18:49:50;6.78;;;3.20;;
46675;SDS011;32412;51.478;5.694;2022-07-06T18:52:17;6.50;;;2.90;;
46675;SDS011;32412;51.478;5.694;2022-07-06T18:54:45;7.97;;;2.72;;
46675;SDS011;32412;51.478;5.694;2022-07-06T18:57:11;7.60;;;2.58;;
46675;SDS011;32412;51.478;5.694;2022-07-06T18:59:36;6.68;;;2.80;;
46675;SDS011;32412;51.478;5.694;2022-07-06T19:02:02;5.47;;;2.15;;
46675;SDS011;32412;51.478;5.694;2022-07-06T19:04:28;4.63;;;2.20;;
46675;SDS011;32412;51.478;5.694;2022-07-06T19:06:54;5.07;;;2.65;;
46675;SDS011;32412;51.478;5.694;2022-07-06T19:09:20;7.50;;;2.65;;
46675;SDS011;32412;51.478;5.694;2022-07-06T19:11:46;5.55;;;2.60;;
46675;SDS011;32412;51.478;5.694;2022-07-06T19:14:11;8.05;;;3.45;;
46675;SDS011;32412;51.478;5.694;2022-07-06T19:16:37;6.20;;;2.75;;
46675;SDS011;32412;51.478;5.694;2022-07-06T19:19:03;3.55;;;2.75;;
46675;SDS011;32412;51.478;5.694;2022-07-06T19:21:29;8.02;;;2.70;;
46675;SDS011;32412;51.478;5.694;2022-07-06T19:24:00;4.95;;;2.22;;
46675;SDS011;32412;51.478;5.694;2022-07-06T19:26:25;7.68;;;2.70;;
46675;SDS011;32412;51.478;5.694;2022-07-06T19:28:51;5.13;;;2.50;;
46675;SDS011;32412;51.478;5.694;2022-07-06T19:31:17;6.25;;;2.83;;
46675;SDS011;32412;51.478;5.694;2022-07-06T19:33:44;6.18;;;2.78;;
46675;SDS011;32412;51.478;5.694;2022-07-06T19:36:10;6.32;;;2.38;;
46675;SDS011;32412;51.478;5.694;2022-07-06T19:38:36;6.20;;;2.70;;
46675;SDS011;32412;51.478;5.694;2022-07-06T19:41:02;7.15;;;2.45;;
46675;SDS011;32412;51.478;5.694;2022-07-06T19:43:28;6.82;;;2.40;;
46675;SDS011;32412;51.478;5.694;2022-07-06T19:45:53;8.10;;;2.40;;
46675;SDS011;32412;51.478;5.694;2022-07-06T19:48:19;8.48;;;2.55;;
46675;SDS011;32412;51.478;5.694;2022-07-06T19:50:45;3.97;;;2.22;;
46675;SDS011;32412;51.478;5.694;2022-07-06T19:53:13;9.07;;;2.72;;
46675;SDS011;32412;51.478;5.694;2022-07-06T19:55:41;7.63;;;2.33;;
46675;SDS011;32412;51.478;5.694;2022-07-06T19:58:09;6.32;;;2.20;;
46675;SDS011;32412;51.478;5.694;2022-07-06T20:00:35;3.85;;;1.90;;
46675;SDS011;32412;51.478;5.694;2022-07-06T20:03:01;7.85;;;2.50;;
46675;SDS011;32412;51.478;5.694;2022-07-06T20:05:27;4.28;;;2.00;;
46675;SDS011;32412;51.478;5.694;2022-07-06T20:07:55;2.40;;;2.17;;
46675;SDS011;32412;51.478;5.694;2022-07-06T20:10:21;6.68;;;1.98;;
46675;SDS011;32412;51.478;5.694;2022-07-06T20:12:47;6.43;;;2.13;;
46675;SDS011;32412;51.478;5.694;2022-07-06T20:15:13;4.22;;;1.98;;
46675;SDS011;32412;51.478;5.694;2022-07-06T20:17:38;8.75;;;1.70;;
46675;SDS011;32412;51.478;5.694;2022-07-06T20:20:04;6.90;;;1.80;;
46675;SDS011;32412;51.478;5.694;2022-07-06T20:22:30;2.80;;;1.45;;
46675;SDS011;32412;51.478;5.694;2022-07-06T20:24:57;3.67;;;1.45;;
46675;SDS011;32412;51.478;5.694;2022-07-06T20:27:23;1.75;;;1.10;;
46675;SDS011;32412;51.478;5.694;2022-07-06T20:29:50;3.00;;;1.10;;
46675;SDS011;32412;51.478;5.694;2022-07-06T20:32:16;4.40;;;1.13;;
46675;SDS011;32412;51.478;5.694;2022-07-06T20:34:42;1.25;;;1.10;;
46675;SDS011;32412;51.478;5.694;2022-07-06T20:37:07;2.75;;;1.38;;
46675;SDS011;32412;51.478;5.694;2022-07-06T20:39:33;1.80;;;0.80;;
46675;SDS011;32412;51.478;5.694;2022-07-06T20:41:59;1.35;;;1.10;;
46675;SDS011;32412;51.478;5.694;2022-07-06T20:44:25;2.28;;;1.00;;
46675;SDS011;32412;51.478;5.694;2022-07-06T20:46:51;1.65;;;1.25;;
46675;SDS011;32412;51.478;5.694;2022-07-06T20:49:17;2.55;;;1.70;;
46675;SDS011;32412;51.478;5.694;2022-07-06T20:51:43;1.92;;;1.40;;
46675;SDS011;32412;51.478;5.694;2022-07-06T20:54:08;5.38;;;1.88;;
46675;SDS011;32412;51.478;5.694;2022-07-06T20:56:34;3.03;;;1.80;;
46675;SDS011;32412;51.478;5.694;2022-07-06T20:59:01;6.38;;;2.35;;
46675;SDS011;32412;51.478;5.694;2022-07-06T21:01:27;7.53;;;4.32;;
46675;SDS011;32412;51.478;5.694;2022-07-06T21:03:52;5.88;;;2.58;;
46675;SDS011;32412;51.478;5.694;2022-07-06T21:06:18;3.75;;;2.05;;
46675;SDS011;32412;51.478;5.694;2022-07-06T21:08:44;2.58;;;1.45;;
46675;SDS011;32412;51.478;5.694;2022-07-06T21:11:09;1.20;;;1.20;;
46675;SDS011;32412;51.478;5.694;2022-07-06T21:13:35;1.88;;;1.23;;
46675;SDS011;32412;51.478;5.694;2022-07-06T21:16:01;2.78;;;1.23;;
46675;SDS011;32412;51.478;5.694;2022-07-06T21:18:26;1.98;;;1.25;;
46675;SDS011;32412;51.478;5.694;2022-07-06T21:20:52;2.55;;;1.20;;
46675;SDS011;32412;51.478;5.694;2022-07-06T21:23:18;3.97;;;1.13;;
46675;SDS011;32412;51.478;5.694;2022-07-06T21:25:43;1.95;;;1.10;;
46675;SDS011;32412;51.478;5.694;2022-07-06T21:28:09;2.10;;;1.00;;
46675;SDS011;32412;51.478;5.694;2022-07-06T21:30:35;4.60;;;1.10;;
46675;SDS011;32412;51.478;5.694;2022-07-06T21:33:01;1.35;;;1.00;;
46675;SDS011;32412;51.478;5.694;2022-07-06T21:35:26;1.85;;;1.02;;
46675;SDS011;32412;51.478;5.694;2022-07-06T21:37:52;2.33;;;1.33;;
46675;SDS011;32412;51.478;5.694;2022-07-06T21:40:18;2.75;;;1.30;;
46675;SDS011;32412;51.478;5.694;2022-07-06T21:42:45;3.10;;;1.58;;
46675;SDS011;32412;51.478;5.694;2022-07-06T21:45:10;1.45;;;1.08;;
46675;SDS011;32412;51.478;5.694;2022-07-06T21:47:36;3.05;;;1.35;;
46675;SDS011;32412;51.478;5.694;2022-07-06T21:50:02;1.42;;;1.08;;
46675;SDS011;32412;51.478;5.694;2022-07-06T21:52:28;3.78;;;2.38;;
46675;SDS011;32412;51.478;5.694;2022-07-06T21:54:53;1.52;;;1.20;;
46675;SDS011;32412;51.478;5.694;2022-07-06T21:57:22;1.75;;;1.40;;
46675;SDS011;32412;51.478;5.694;2022-07-06T21:59:48;2.17;;;1.35;;
46675;SDS011;32412;51.478;5.694;2022-07-06T22:02:14;2.30;;;1.40;;
46675;SDS011;32412;51.478;5.694;2022-07-06T22:04:40;2.92;;;1.38;;
46675;SDS011;32412;51.478;5.694;2022-07-06T22:07:06;1.27;;;1.17;;
46675;SDS011;32412;51.478;5.694;2022-07-06T22:09:32;1.60;;;1.35;;
46675;SDS011;32412;51.478;5.694;2022-07-06T22:11:58;1.70;;;1.60;;
46675;SDS011;32412;51.478;5.694;2022-07-06T22:14:24;4.45;;;1.90;;
46675;SDS011;32412;51.478;5.694;2022-07-06T22:16:51;4.75;;;1.40;;
46675;SDS011;32412;51.478;5.694;2022-07-06T22:19:17;2.25;;;1.45;;
46675;SDS011;32412;51.478;5.694;2022-07-06T22:21:43;3.05;;;1.77;;
46675;SDS011;32412;51.478;5.694;2022-07-06T22:24:09;3.95;;;1.80;;
46675;SDS011;32412;51.478;5.694;2022-07-06T22:26:36;4.00;;;2.92;;
46675;SDS011;32412;51.478;5.694;2022-07-06T22:29:02;2.85;;;2.10;;
46675;SDS011;32412;51.478;5.694;2022-07-06T22:31:29;4.07;;;1.60;;
46675;SDS011;32412;51.478;5.694;2022-07-06T22:33:56;3.13;;;1.60;;
46675;SDS011;32412;51.478;5.694;2022-07-06T22:36:24;3.03;;;1.70;;
46675;SDS011;32412;51.478;5.694;2022-07-06T22:38:53;3.05;;;1.80;;
46675;SDS011;32412;51.478;5.694;2022-07-06T22:41:19;2.47;;;1.95;;
46675;SDS011;32412;51.478;5.694;2022-07-06T22:43:46;5.47;;;2.00;;
46675;SDS011;32412;51.478;5.694;2022-07-06T22:46:15;5.43;;;2.15;;
46675;SDS011;32412;51.478;5.694;2022-07-06T22:48:42;2.38;;;2.13;;
46675;SDS011;32412;51.478;5.694;2022-07-06T22:51:12;3.40;;;2.20;;
46675;SDS011;32412;51.478;5.694;2022-07-06T22:53:38;3.75;;;2.10;;
46675;SDS011;32412;51.478;5.694;2022-07-06T22:56:04;3.25;;;2.35;;
46675;SDS011;32412;51.478;5.694;2022-07-06T22:58:32;3.70;;;2.75;;
46675;SDS011;32412;51.478;5.694;2022-07-06T23:01:02;5.85;;;2.90;;
46675;SDS011;32412;51.478;5.694;2022-07-06T23:03:34;3.63;;;2.67;;
46675;SDS011;32412;51.478;5.694;2022-07-06T23:05:59;3.65;;;2.58;;
46675;SDS011;32412;51.478;5.694;2022-07-06T23:08:25;3.92;;;2.97;;
46675;SDS011;32412;51.478;5.694;2022-07-06T23:10:52;3.90;;;3.30;;
46675;SDS011;32412;51.478;5.694;2022-07-06T23:13:20;4.78;;;3.65;;
46675;SDS011;32412;51.478;5.694;2022-07-06T23:15:46;5.63;;;3.75;;
46675;SDS011;32412;51.478;5.694;2022-07-06T23:18:13;3.97;;;3.58;;
46675;SDS011;32412;51.478;5.694;2022-07-06T23:20:39;5.85;;;3.78;;
46675;SDS011;32412;51.478;5.694;2022-07-06T23:23:07;8.85;;;4.32;;
46675;SDS011;32412;51.478;5.694;2022-07-06T23:25:33;6.30;;;3.97;;
46675;SDS011;32412;51.478;5.694;2022-07-06T23:28:02;5.15;;;4.25;;
46675;SDS011;32412;51.478;5.694;2022-07-06T23:30:28;6.65;;;4.30;;
46675;SDS011;32412;51.478;5.694;2022-07-06T23:32:53;5.80;;;3.85;;
46675;SDS011;32412;51.478;5.694;2022-07-06T23:35:22;7.85;;;4.40;;
46675;SDS011;32412;51.478;5.694;2022-07-06T23:37:48;8.18;;;3.97;;
46675;SDS011;32412;51.478;5.694;2022-07-06T23:40:14;6.18;;;4.80;;
46675;SDS011;32412;51.478;5.694;2022-07-06T23:42:40;8.30;;;5.25;;
46675;SDS011;32412;51.478;5.694;2022-07-06T23:45:06;6.70;;;5.40;;
46675;SDS011;32412;51.478;5.694;2022-07-06T23:47:32;7.20;;;5.07;;
46675;SDS011;32412;51.478;5.694;2022-07-06T23:49:59;7.28;;;4.72;;
46675;SDS011;32412;51.478;5.694;2022-07-06T23:52:28;6.80;;;4.97;;
46675;SDS011;32412;51.478;5.694;2022-07-06T23:54:54;7.20;;;5.47;;
46675;SDS011;32412;51.478;5.694;2022-07-06T23:57:20;7.93;;;5.13;;
46675;SDS011;32412;51.478;5.694;2022-07-06T23:59:46;7.93;;;4.70;;
